Time;durP1;ratioP1;P1;durP2;ratioP2;P2;SDS_P1;SDS_P2;PMS_P1;PMS_P2;Temp;Humidity;BMP_temperature;BMP_pressure;BME280_temperature;BME280_humidity;BME280_pressure;Samples;Min_cycle;Max_cycle;Signal;HPM_P1;HPM_P2
2022/02/04 00:05:48;;;;;;;19.37;17.57;;;;;;;5.94;94.63;100238.06;5032142;28;20226;-78
2022/02/04 00:08:40;;;;;;;20.30;18.40;;;;;;;5.91;94.93;100235.50;5032930;28;20213;-78
2022/02/04 00:24:47;;;;;;;20.37;18.23;;;;;;;5.73;95.40;100212.25;5032779;28;20223;-78
2022/02/04 00:27:19;;;;;;;20.80;18.60;;;;;;;5.66;96.44;100193.28;5032691;28;20333;-78
2022/02/04 00:29:54;;;;;;;20.80;18.80;;;;;;;5.73;96.13;100183.78;5032566;28;20226;-79
2022/02/04 00:32:23;;;;;;;21.30;19.10;;;;;;;5.71;96.74;100177.75;5032637;28;20257;-78
2022/02/04 00:34:56;;;;;;;21.33;19.10;;;;;;;5.75;96.70;100176.88;5032259;28;20236;-79
2022/02/04 00:37:31;;;;;;;22.03;19.83;;;;;;;5.71;95.43;100180.34;5032588;28;20204;-78
2022/02/04 00:40:07;;;;;;;22.33;20.23;;;;;;;5.71;95.58;100193.28;5032398;28;20194;-78
2022/02/04 00:42:33;;;;;;;20.73;18.80;;;;;;;5.80;96.06;100193.22;5032970;28;20195;-78
2022/02/04 00:45:15;;;;;;;20.97;19.00;;;;;;;5.76;94.98;100200.13;5032670;28;20224;-78
2022/02/04 00:47:47;;;;;;;20.63;18.73;;;;;;;5.77;95.05;100206.22;5032720;28;20270;-78
2022/02/04 00:50:23;;;;;;;21.93;19.83;;;;;;;5.60;95.89;100210.56;5032339;28;20188;-78
2022/02/04 00:53:03;;;;;;;19.73;17.83;;;;;;;5.56;96.61;100195.03;5032759;28;20208;-78
2022/02/04 00:55:37;;;;;;;23.10;20.70;;;;;;;5.62;96.38;100191.56;5032464;28;20235;-79
2022/02/04 01:13:03;;;;;;;23.67;21.23;;;;;;;5.60;95.85;100207.97;5030391;28;20210;-78
2022/02/04 01:26:02;;;;;;;21.13;19.03;;;;;;;5.72;95.09;100234.69;5031889;28;20254;-78
2022/02/04 01:28:28;;;;;;;21.97;19.60;;;;;;;5.73;94.87;100240.75;5033109;28;20215;-78
2022/02/04 01:30:56;;;;;;;22.30;20.00;;;;;;;5.74;94.21;100240.72;5032044;28;20219;-77
2022/02/04 01:33:24;;;;;;;23.97;20.40;;;;;;;5.78;93.88;100246.75;5032046;28;20212;-79
2022/02/04 01:35:51;;;;;;;21.13;18.97;;;;;;;5.79;94.50;100251.09;5031655;28;20228;-78
2022/02/04 01:38:18;;;;;;;20.70;18.57;;;;;;;5.80;93.83;100254.53;5032702;28;20203;-79
2022/02/04 01:40:44;;;;;;;21.47;18.50;;;;;;;5.71;94.82;100263.19;5031599;28;20215;-77
2022/02/04 01:43:10;;;;;;;25.67;21.27;;;;;;;5.73;94.50;100254.56;5032312;28;20239;-78
2022/02/04 01:45:37;;;;;;;22.83;20.63;;;;;;;5.68;94.46;100247.66;5032201;28;20269;-79
2022/02/04 01:48:03;;;;;;;22.90;20.57;;;;;;;5.71;94.80;100247.66;5032148;28;20211;-79
2022/02/04 01:50:32;;;;;;;24.67;21.83;;;;;;;5.72;95.24;100242.47;5033865;28;20279;-78
2022/02/04 01:53:01;;;;;;;23.17;19.93;;;;;;;5.75;94.99;100239.03;5034960;28;20234;-78
2022/02/04 01:55:27;;;;;;;23.57;21.23;;;;;;;5.69;94.48;100250.25;5035285;28;20263;-78
2022/02/04 01:57:54;;;;;;;23.23;20.97;;;;;;;5.72;94.32;100249.38;5040957;28;20212;-78
2022/02/04 02:00:20;;;;;;;23.50;20.87;;;;;;;5.79;94.06;100248.50;5036959;28;20207;-78
2022/02/04 02:02:47;;;;;;;23.33;21.00;;;;;;;5.71;94.36;100252.84;5035719;28;20208;-78
2022/02/04 02:05:13;;;;;;;24.63;21.33;;;;;;;5.61;94.10;100248.53;5034879;28;20228;-77
2022/02/04 02:07:46;;;;;;;24.20;21.60;;;;;;;5.68;94.54;100247.66;5035314;28;20258;-77
2022/02/04 02:10:15;;;;;;;23.40;21.00;;;;;;;5.68;93.83;100251.09;5034929;28;20207;-78
2022/02/04 02:12:50;;;;;;;23.40;20.97;;;;;;;5.65;94.13;100253.72;5035662;28;20212;-76
2022/02/04 02:15:24;;;;;;;21.90;19.57;;;;;;;5.69;93.67;100260.59;5035011;28;20259;-77
2022/02/04 02:34:51;;;;;;;22.50;19.23;;;;;;;5.75;93.21;100268.34;5034919;28;20271;-78
2022/02/04 02:43:27;;;;;;;21.60;19.43;;;;;;;5.83;93.29;100289.06;5034570;28;20207;-77
2022/02/04 02:46:06;;;;;;;21.47;19.33;;;;;;;5.81;93.06;100282.16;5034772;28;20507;-78
2022/02/04 02:48:44;;;;;;;21.37;19.17;;;;;;;5.62;93.49;100273.56;5034733;28;20196;-78
2022/02/04 02:57:09;;;;;;;23.67;20.53;;;;;;;5.66;93.75;100260.59;5034452;28;20352;-78
2022/02/04 02:59:44;;;;;;;20.23;18.23;;;;;;;5.67;94.67;100249.38;5034356;28;20608;-77
2022/02/04 03:02:10;;;;;;;22.27;18.67;;;;;;;5.61;93.59;100254.59;5034463;28;20483;-78
2022/02/04 03:04:37;;;;;;;21.20;19.07;;;;;;;5.68;93.74;100260.59;5033861;28;20634;-78
2022/02/04 03:07:04;;;;;;;21.17;19.00;;;;;;;5.81;94.08;100245.88;5033910;28;20251;-79
2022/02/04 03:09:30;;;;;;;19.53;17.50;;;;;;;5.88;95.01;100230.31;5033936;28;20736;-79
2022/02/04 03:11:58;;;;;;;24.17;19.87;;;;;;;5.81;94.30;100238.13;5034639;28;20263;-79
2022/02/04 03:14:25;;;;;;;21.30;19.23;;;;;;;5.87;94.54;100220.84;5034377;28;20238;-79
2022/02/04 03:16:51;;;;;;;21.33;19.13;;;;;;;5.96;95.13;100217.38;5034405;28;20278;-78
2022/02/04 03:19:18;;;;;;;22.40;20.00;;;;;;;6.03;94.73;100218.25;5033727;28;20204;-76
2022/02/04 03:21:47;;;;;;;23.23;19.90;;;;;;;5.95;94.97;100215.69;5034192;28;20273;-78
2022/02/04 03:24:17;;;;;;;22.50;20.23;;;;;;;5.81;94.41;100207.91;5033979;28;20231;-79
2022/02/04 03:26:48;;;;;;;21.53;19.23;;;;;;;5.85;94.47;100208.78;5033901;28;20209;-77
2022/02/04 03:29:21;;;;;;;20.70;18.60;;;;;;;5.93;94.91;100199.25;5033688;28;20702;-78
2022/02/04 03:31:52;;;;;;;21.07;19.00;;;;;;;5.93;94.28;100212.19;5034112;28;20575;-77
2022/02/04 03:34:18;;;;;;;20.20;18.30;;;;;;;6.00;94.83;100208.72;5033695;28;20239;-79
2022/02/04 03:36:45;;;;;;;20.60;18.70;;;;;;;6.05;94.79;100212.19;5033655;28;20218;-78
2022/02/04 03:39:11;;;;;;;20.50;18.50;;;;;;;5.99;94.58;100212.19;5033797;28;20209;-79
2022/02/04 03:41:38;;;;;;;22.43;19.70;;;;;;;6.05;94.69;100198.38;5033630;28;20212;-78
2022/02/04 03:44:05;;;;;;;19.90;18.00;;;;;;;6.06;95.01;100203.50;5033801;28;20258;-79
2022/02/04 03:46:33;;;;;;;24.60;18.70;;;;;;;6.07;94.59;100209.59;5033782;28;20209;-79
2022/02/04 03:48:59;;;;;;;21.23;19.07;;;;;;;6.10;93.57;100218.19;5034018;28;20267;-78
2022/02/04 03:51:25;;;;;;;21.07;18.83;;;;;;;6.09;93.90;100221.66;5034160;28;20207;-79
2022/02/04 03:53:52;;;;;;;19.70;17.70;;;;;;;6.09;94.36;100213.88;5034485;28;20298;-79
2022/02/04 03:56:19;;;;;;;20.40;17.83;;;;;;;6.10;94.32;100218.19;5034255;28;20650;-79
2022/02/04 03:58:46;;;;;;;21.07;18.90;;;;;;;6.06;94.02;100228.56;5034179;28;20671;-79
2022/02/04 04:01:13;;;;;;;20.43;18.37;;;;;;;5.97;93.51;100229.47;5033652;28;20213;-79
2022/02/04 04:03:40;;;;;;;21.03;19.13;;;;;;;6.08;93.26;100232.03;5033881;28;20213;-78
2022/02/04 04:06:08;;;;;;;20.20;18.13;;;;;;;6.13;93.01;100238.06;5033552;28;20398;-78
2022/02/04 04:08:35;;;;;;;22.47;18.83;;;;;;;6.19;92.37;100251.00;5033394;28;20582;-77
2022/02/04 04:11:01;;;;;;;22.10;19.43;;;;;;;6.22;92.59;100256.13;5034035;28;20245;-78
2022/02/04 04:13:28;;;;;;;20.33;18.27;;;;;;;6.19;92.18;100261.34;5034363;28;20209;-78
2022/02/04 04:15:55;;;;;;;19.43;17.67;;;;;;;6.12;91.77;100268.28;5033760;28;20284;-77
2022/02/04 04:18:21;;;;;;;19.73;17.77;;;;;;;6.20;91.70;100270.84;5033623;28;20203;-78
2022/02/04 04:20:49;;;;;;;19.13;17.23;;;;;;;6.21;91.70;100282.94;5032751;28;20212;-77
2022/02/04 04:23:16;;;;;;;19.40;17.60;;;;;;;6.25;91.50;100284.66;5033752;28;20622;-78
2022/02/04 04:25:42;;;;;;;19.10;17.30;;;;;;;6.15;91.29;100299.38;5032820;28;20222;-78
2022/02/04 04:28:08;;;;;;;19.83;18.03;;;;;;;5.97;91.62;100295.09;5033562;28;20208;-79
2022/02/04 04:30:35;;;;;;;20.37;18.37;;;;;;;6.10;91.42;100285.56;5033263;28;20633;-78
2022/02/04 04:33:01;;;;;;;19.43;17.50;;;;;;;6.21;91.69;100276.91;5033917;28;20238;-78
2022/02/04 04:35:28;;;;;;;19.50;17.17;;;;;;;6.16;91.79;100282.97;5032320;28;20731;-78
2022/02/04 04:38:03;;;;;;;20.83;17.50;;;;;;;6.12;91.50;100296.78;5033411;28;20208;-79
2022/02/04 04:43:32;;;;;;;20.90;18.17;;;;;;;6.19;91.65;100279.50;5017429;28;20317;-77
2022/02/04 04:46:21;;;;;;;19.90;18.03;;;;;;;6.24;91.80;100269.97;5033510;28;20205;-78
2022/02/04 05:30:07;;;;;;;14.53;13.20;;;;;;;6.15;89.54;100280.38;5014553;28;20607;-79
2022/02/04 05:32:34;;;;;;;14.67;12.97;;;;;;;6.07;89.21;100287.31;5036192;28;20285;-78
2022/02/04 05:35:01;;;;;;;15.23;13.73;;;;;;;6.16;89.68;100295.03;5035307;28;20282;-78
2022/02/04 05:37:27;;;;;;;14.57;13.30;;;;;;;6.23;89.32;100276.03;5052440;22;20253;-76
2022/02/04 05:39:56;;;;;;;15.87;14.37;;;;;;;6.29;89.68;100270.81;5043858;28;20269;-77
2022/02/04 05:42:28;;;;;;;14.50;13.20;;;;;;;6.31;89.29;100276.00;5055459;28;20702;-76
2022/02/04 05:45:00;;;;;;;13.53;12.27;;;;;;;6.25;88.95;100276.88;5055942;28;20211;-77
2022/02/04 05:47:27;;;;;;;14.67;13.37;;;;;;;6.11;89.11;100284.69;5055945;28;20218;-76
2022/02/04 05:50:09;;;;;;;13.57;12.17;;;;;;;6.08;88.99;100283.84;5055164;28;20256;-76
2022/02/04 05:52:51;;;;;;;12.90;11.80;;;;;;;6.12;89.10;100281.22;5055294;28;20207;-76
2022/02/04 05:55:32;;;;;;;14.13;12.93;;;;;;;6.17;89.57;100278.63;5056232;28;20200;-76
2022/02/04 05:58:23;;;;;;;14.03;12.83;;;;;;;6.26;89.31;100276.00;5060339;28;20224;-78
2022/02/04 06:00:55;;;;;;;12.83;11.73;;;;;;;6.26;88.64;100286.34;5059181;28;20195;-78
2022/02/04 06:03:35;;;;;;;13.70;12.60;;;;;;;6.29;88.97;100290.69;5059935;28;20195;-78
2022/02/04 06:06:19;;;;;;;14.00;12.80;;;;;;;6.29;88.68;100295.88;5059424;28;20238;-78
2022/02/04 06:09:10;;;;;;;13.63;12.43;;;;;;;6.35;88.99;100288.06;5049250;28;20218;-78
2022/02/04 06:11:41;;;;;;;13.73;12.60;;;;;;;6.29;88.88;100294.13;5018862;28;20234;-78
2022/02/04 06:14:29;;;;;;;13.47;12.27;;;;;;;6.26;88.98;100276.00;5020099;28;20271;-78
2022/02/04 06:22:26;;;;;;;13.53;12.20;;;;;;;6.24;88.64;100276.88;5020229;28;20196;-78
2022/02/04 06:24:55;;;;;;;13.43;12.23;;;;;;;6.16;88.92;100264.84;5019533;28;20217;-76
2022/02/04 06:27:23;;;;;;;12.70;11.70;;;;;;;6.24;89.04;100257.00;5020095;28;20249;-78
2022/02/04 06:29:51;;;;;;;11.60;10.60;;;;;;;6.24;88.92;100267.38;5019993;28;20221;-78
2022/02/04 06:32:18;;;;;;;11.90;10.90;;;;;;;6.31;88.42;100284.63;5020217;28;20208;-78
2022/02/04 06:34:45;;;;;;;12.23;11.13;;;;;;;6.31;89.07;100266.47;5018654;28;20602;-80
2022/02/04 06:37:11;;;;;;;11.53;10.33;;;;;;;6.15;89.55;100265.69;5028200;28;20237;-80
2022/02/04 06:39:38;;;;;;;12.07;11.07;;;;;;;6.19;89.10;100251.00;5044757;28;20666;-79
2022/02/04 06:42:05;;;;;;;11.67;10.67;;;;;;;6.20;89.83;100251.84;5029471;28;20196;-79
2022/02/04 06:44:32;;;;;;;11.10;10.20;;;;;;;6.19;89.05;100257.91;5027621;28;20267;-80
2022/02/04 06:46:59;;;;;;;10.63;9.73;;;;;;;6.21;89.46;100249.25;5025979;28;20244;-79
2022/02/04 06:49:26;;;;;;;12.57;11.40;;;;;;;6.12;89.03;100252.72;5026102;28;20692;-79
2022/02/04 06:51:52;;;;;;;11.60;10.57;;;;;;;6.14;89.85;100242.34;5025347;28;20200;-80
2022/02/04 06:54:18;;;;;;;12.10;11.00;;;;;;;6.09;89.64;100232.03;5029940;28;20667;-79
2022/02/04 06:56:45;;;;;;;11.40;10.33;;;;;;;6.16;90.13;100251.00;5029521;28;20224;-81
2022/02/04 06:59:11;;;;;;;11.20;10.27;;;;;;;6.15;89.89;100250.13;5031216;28;20227;-80
2022/02/04 07:01:38;;;;;;;10.23;9.27;;;;;;;6.24;89.39;100259.59;5026766;28;20260;-81
2022/02/04 07:04:07;;;;;;;10.93;9.93;;;;;;;6.28;89.89;100256.16;5026286;28;20271;-79
2022/02/04 07:06:38;;;;;;;10.97;10.07;;;;;;;6.23;89.90;100246.66;5032426;28;20223;-78
2022/02/04 07:09:21;;;;;;;10.30;9.40;;;;;;;6.18;90.65;100238.88;5037628;28;20673;-80
2022/02/04 07:14:37;;;;;;;10.90;9.80;;;;;;;6.12;91.04;100207.81;5025137;28;20726;-79
2022/02/04 07:17:15;;;;;;;11.50;10.50;;;;;;;6.03;91.62;100219.09;5026760;28;20284;-78
2022/02/04 07:19:46;;;;;;;10.73;9.83;;;;;;;6.01;91.23;100194.06;5026647;28;20202;-79
2022/02/04 07:22:13;;;;;;;10.23;9.33;;;;;;;5.97;92.55;100175.94;5026970;28;20312;-80
2022/02/04 07:24:39;;;;;;;11.53;10.43;;;;;;;6.01;92.02;100184.56;5028744;28;20223;-80
2022/02/04 07:27:06;;;;;;;11.33;10.33;;;;;;;6.01;92.02;100173.34;5025744;28;20218;-81
2022/02/04 07:29:33;;;;;;;11.00;10.10;;;;;;;6.00;91.32;100182.81;5026493;28;20646;-80
2022/02/04 07:32:04;;;;;;;11.27;10.37;;;;;;;6.06;91.92;100181.94;5028775;28;20202;-79
2022/02/04 07:34:42;;;;;;;10.63;9.80;;;;;;;6.09;91.58;100179.34;5027582;28;20206;-80
2022/02/04 07:42:38;;;;;;;10.43;9.53;;;;;;;6.07;91.30;100192.31;5026010;28;20203;-78
2022/02/04 07:45:05;;;;;;;11.03;9.93;;;;;;;6.17;91.53;100198.31;5024410;28;20295;-79
2022/02/04 07:47:32;;;;;;;10.47;9.63;;;;;;;6.20;91.53;100200.88;5026320;28;20243;-79
2022/02/04 07:49:58;;;;;;;10.63;9.73;;;;;;;6.22;91.27;100206.91;5023660;28;20221;-79
2022/02/04 07:52:26;;;;;;;9.80;9.00;;;;;;;6.29;90.58;100212.94;5026240;28;20209;-79
2022/02/04 07:54:52;;;;;;;9.07;8.27;;;;;;;6.24;90.11;100220.72;5026519;28;20278;-78
2022/02/04 07:57:19;;;;;;;9.03;8.30;;;;;;;6.20;89.56;100238.88;5025894;28;20231;-78
2022/02/04 07:59:47;;;;;;;9.60;8.80;;;;;;;6.27;89.34;100241.44;5022990;28;20576;-76
2022/02/04 08:02:13;;;;;;;9.33;8.53;;;;;;;6.27;89.79;100235.41;5023387;28;20201;-80
2022/02/04 08:04:41;;;;;;;8.27;7.67;;;;;;;6.19;88.95;100243.22;5028615;28;20206;-79
2022/02/04 08:07:12;;;;;;;8.93;8.20;;;;;;;6.28;89.23;100242.31;5024817;28;20221;-79
2022/02/04 08:09:50;;;;;;;8.33;7.63;;;;;;;6.22;89.16;100248.38;5026161;28;20243;-79
2022/02/04 08:12:34;;;;;;;8.70;7.90;;;;;;;6.22;90.00;100234.56;5025118;28;20200;-77
2022/02/04 08:15:10;;;;;;;8.37;7.57;;;;;;;6.27;89.18;100236.25;5025374;28;20219;-78
2022/02/04 08:20:38;;;;;;;7.97;7.37;;;;;;;6.23;89.12;100249.25;5021464;28;20670;-76
2022/02/04 08:23:58;;;;;;;9.07;8.32;;;;;;;6.15;88.63;100255.31;5023610;28;20441;-77
2022/02/04 08:26:36;;;;;;;7.73;7.13;;;;;;;6.16;88.98;100238.91;5024604;28;20236;-79
2022/02/04 08:34:36;;;;;;;7.53;6.93;;;;;;;6.24;89.49;100241.44;5025426;28;20723;-77
2022/02/04 08:48:47;;;;;;;6.50;6.00;;;;;;;6.50;89.52;100230.97;5021950;28;20232;-77
2022/02/04 08:51:30;;;;;;;6.60;6.07;;;;;;;6.52;89.14;100231.81;5023950;28;20206;-78
2022/02/04 08:54:12;;;;;;;6.80;6.20;;;;;;;6.53;89.47;100236.13;5024156;28;20212;-77
2022/02/04 08:56:53;;;;;;;8.57;6.23;;;;;;;6.53;88.57;100248.22;5024180;28;20770;-78
2022/02/04 08:59:29;;;;;;;6.47;6.07;;;;;;;6.61;88.75;100254.22;5029157;28;20212;-77
2022/02/04 09:02:04;;;;;;;5.83;5.43;;;;;;;6.62;89.03;100234.34;5033584;28;20213;-79
2022/02/04 09:04:35;;;;;;;6.23;5.73;;;;;;;6.64;88.54;100240.38;5032145;28;20206;-78
2022/02/04 09:07:06;;;;;;;5.70;5.20;;;;;;;6.69;88.99;100236.03;5032050;28;20604;-77
2022/02/04 09:09:46;;;;;;;6.27;5.87;;;;;;;6.80;88.53;100239.44;5053482;28;20202;-77
2022/02/04 09:16:48;;;;;;;6.00;5.60;;;;;;;6.74;88.46;100248.09;5053250;28;20602;-78
2022/02/04 09:18:32;;;;;;;5.30;4.83;;;;;;;6.81;88.57;100241.13;5053273;28;20247;-78
2022/02/04 09:21:12;;;;;;;5.17;4.77;;;;;;;6.85;87.74;100232.47;5054115;28;20588;-77
2022/02/04 09:23:39;;;;;;;5.57;5.17;;;;;;;6.82;87.78;100250.66;5054112;28;20359;-78
2022/02/04 09:26:08;;;;;;;5.33;4.93;;;;;;;6.61;87.31;100251.63;5053343;28;20679;-77
2022/02/04 09:28:35;;;;;;;5.40;5.00;;;;;;;6.60;88.67;100224.00;5053130;28;20682;-77
2022/02/04 09:31:04;;;;;;;5.30;4.90;;;;;;;6.63;89.76;100194.59;5053117;28;20514;-77
2022/02/04 09:33:30;;;;;;;5.07;4.67;;;;;;;6.70;89.84;100193.66;5052903;28;20209;-77
2022/02/04 09:35:56;;;;;;;5.50;5.00;;;;;;;6.72;89.79;100173.78;5054492;28;20212;-77
2022/02/04 09:38:23;;;;;;;5.07;4.67;;;;;;;6.55;89.50;100173.88;5041363;28;20265;-77
2022/02/04 09:40:49;;;;;;;4.57;4.20;;;;;;;6.61;89.58;100160.88;5050547;28;20619;-77
2022/02/04 09:43:16;;;;;;;5.17;4.77;;;;;;;6.57;89.82;100162.63;5045250;28;20216;-77
2022/02/04 09:45:42;;;;;;;4.63;4.33;;;;;;;6.60;89.13;100176.44;5052065;28;20207;-77
2022/02/04 09:48:12;;;;;;;5.30;4.90;;;;;;;6.60;89.81;100186.81;5052330;28;20227;-77
2022/02/04 09:50:44;;;;;;;5.27;4.77;;;;;;;6.68;89.68;100177.25;5051630;28;20698;-77
2022/02/04 10:04:51;;;;;;;4.70;4.30;;;;;;;6.96;88.23;100194.31;5051907;28;20237;-78
2022/02/04 10:07:27;;;;;;;5.53;5.13;;;;;;;6.99;86.79;100219.38;5044540;28;20244;-77
2022/02/04 10:10:21;;;;;;;5.60;5.10;;;;;;;7.08;86.62;100229.69;5052380;28;20189;-77
2022/02/04 10:13:18;;;;;;;5.40;5.00;;;;;;;7.08;85.51;100262.59;5051001;28;20234;-79
2022/02/04 10:15:56;;;;;;;4.40;4.10;;;;;;;7.12;85.46;100259.94;5053001;28;20275;-80
2022/02/04 10:18:33;;;;;;;4.90;4.50;;;;;;;7.24;86.59;100247.75;5054168;28;20702;-77
2022/02/04 10:21:07;;;;;;;5.20;4.80;;;;;;;7.32;85.48;100254.59;5054454;28;20243;-77
2022/02/04 10:23:47;;;;;;;6.03;5.43;;;;;;;7.31;84.38;100277.97;5054649;28;20261;-79
2022/02/04 10:26:14;;;;;;;4.63;4.33;;;;;;;7.27;83.90;100297.88;5054970;28;20313;-78
2022/02/04 10:28:42;;;;;;;5.37;4.97;;;;;;;7.37;84.84;100288.28;5054795;28;20204;-77
2022/02/04 10:31:15;;;;;;;5.47;4.97;;;;;;;7.45;85.11;100276.13;5054345;28;20208;-79
2022/02/04 10:33:55;;;;;;;5.40;5.00;;;;;;;7.46;83.97;100289.97;5055064;28;20188;-76
2022/02/04 10:36:47;;;;;;;5.00;4.60;;;;;;;7.47;83.35;100295.16;5051901;28;20233;-77
2022/02/04 10:39:50;;;;;;;5.33;4.93;;;;;;;7.47;83.15;100299.47;5052986;28;20212;-79
2022/02/04 10:42:26;;;;;;;5.47;5.07;;;;;;;7.38;83.13;100297.81;5056286;28;20240;-76
2022/02/04 10:45:22;;;;;;;5.40;5.00;;;;;;;7.39;84.78;100275.31;5054529;28;20215;-78
2022/02/04 10:48:03;;;;;;;5.10;4.60;;;;;;;7.35;84.09;100272.75;5054087;28;20225;-76
2022/02/04 10:59:12;;;;;;;4.73;4.43;;;;;;;7.42;83.45;100239.78;5054666;28;20247;-78
2022/02/04 11:02:00;;;;;;;4.30;4.00;;;;;;;7.38;82.67;100273.59;5054225;28;20243;-78
2022/02/04 11:04:34;;;;;;;5.13;4.67;;;;;;;7.29;82.75;100280.56;5054439;28;20230;-78
2022/02/04 11:07:17;;;;;;;8.20;4.40;;;;;;;7.40;82.72;100251.94;5047017;28;20494;-78
2022/02/04 11:09:58;;;;;;;4.30;3.90;;;;;;;7.41;83.17;100274.41;5054920;28;20188;-77
2022/02/04 11:32:39;;;;;;;3.83;3.53;;;;;;;7.82;82.18;100229.00;5056177;28;20225;-78
2022/02/04 11:35:15;;;;;;;3.13;2.93;;;;;;;7.74;80.91;100257.66;5055156;28;20252;-77
2022/02/04 11:43:53;;;;;;;3.20;3.00;;;;;;;7.96;80.87;100245.28;5093577;28;20210;-77
2022/02/04 11:50:00;;;;;;;2.90;2.70;;;;;;;8.11;81.07;100214.81;5095308;28;20265;-78
2022/02/04 11:52:36;;;;;;;2.40;2.20;;;;;;;8.28;81.01;100199.81;5094897;28;20200;-78
2022/02/04 11:55:33;;;;;;;2.10;2.00;;;;;;;8.18;81.18;100192.19;5089935;28;20218;-77
2022/02/04 11:58:03;;;;;;;2.77;2.57;;;;;;;8.12;82.47;100182.72;5073522;28;20254;-77
2022/02/04 12:00:42;;;;;;;2.50;2.30;;;;;;;8.19;82.93;100153.16;5079208;28;20709;-78
2022/02/04 12:03:28;;;;;;;2.10;2.00;;;;;;;8.25;82.95;100134.03;5091071;28;20726;-78
2022/02/04 12:05:55;;;;;;;2.43;2.33;;;;;;;8.24;81.89;100153.09;5094299;28;20200;-78
2022/02/04 12:08:30;;;;;;;2.70;2.20;;;;;;;8.12;81.57;100149.78;5090435;28;20220;-79
2022/02/04 12:11:00;;;;;;;2.20;2.00;;;;;;;8.19;82.60;100136.72;5089916;28;20565;-79
2022/02/04 12:13:27;;;;;;;1.70;1.60;;;;;;;8.11;82.93;100116.03;5094696;28;20208;-79
2022/02/04 12:15:57;;;;;;;1.60;1.53;;;;;;;8.17;84.21;100095.13;5093762;28;20681;-78
2022/02/04 12:18:45;;;;;;;2.17;2.03;;;;;;;8.29;83.73;100092.34;5093260;28;20231;-77
2022/02/04 12:21:13;;;;;;;2.00;1.90;;;;;;;8.14;84.80;100058.75;5092654;28;20211;-79
2022/02/04 12:23:49;;;;;;;1.63;1.53;;;;;;;8.11;83.84;100051.03;5092610;28;20218;-78
2022/02/04 12:26:23;;;;;;;2.17;1.70;;;;;;;8.15;84.19;100060.50;5094308;28;20199;-79
2022/02/04 12:28:52;;;;;;;1.67;1.57;;;;;;;8.25;84.49;100049.06;5094138;28;20573;-80
2022/02/04 12:31:24;;;;;;;2.03;1.87;;;;;;;8.15;82.37;100078.69;5094457;28;20236;-78
2022/02/04 12:33:54;;;;;;;2.17;1.70;;;;;;;8.41;83.06;100073.13;5097850;28;20211;-80
2022/02/04 12:36:22;;;;;;;1.63;1.53;;;;;;;8.57;81.87;100091.94;5094950;28;20207;-79
2022/02/04 12:38:50;;;;;;;1.30;1.20;;;;;;;8.79;79.31;100138.44;5087303;28;20227;-80
2022/02/04 12:41:26;;;;;;;1.33;1.23;;;;;;;9.17;77.84;100168.16;5091975;28;20617;-79
2022/02/04 12:43:57;;;;;;;1.40;1.30;;;;;;;9.59;76.57;100209.94;5094275;28;20218;-80
2022/02/04 12:46:26;;;;;;;1.30;1.20;;;;;;;9.80;75.70;100243.41;5097136;28;20200;-78
2022/02/04 12:48:58;;;;;;;1.73;1.17;;;;;;;9.55;74.39;100282.09;5095960;28;20234;-80
2022/02/04 12:51:50;;;;;;;1.13;1.03;;;;;;;9.57;74.27;100295.94;5093206;28;20264;-78
2022/02/04 12:54:28;;;;;;;0.87;0.87;;;;;;;9.46;73.66;100292.69;5093864;28;20211;-80
2022/02/04 12:57:28;;;;;;;0.90;0.80;;;;;;;9.32;73.71;100292.91;5095554;28;20219;-80
2022/02/04 13:00:00;;;;;;;1.07;0.83;;;;;;;9.28;74.62;100284.28;5095610;28;20204;-79
2022/02/04 13:02:47;;;;;;;1.47;0.67;;;;;;;8.89;74.05;100271.00;5095543;28;20221;-80
2022/02/04 13:08:12;;;;;;;0.70;0.70;;;;;;;8.73;76.25;100231.31;5095041;28;20305;-79
2022/02/04 13:10:38;;;;;;;0.80;0.80;;;;;;;8.67;77.21;100191.53;5088333;28;20552;-78
2022/02/04 13:13:06;;;;;;;0.70;0.70;;;;;;;8.39;77.67;100183.25;5095036;28;20280;-77
2022/02/04 13:15:35;;;;;;;0.50;0.50;;;;;;;8.42;77.75;100175.41;5097336;28;20206;-78
2022/02/04 13:18:06;;;;;;;0.60;0.60;;;;;;;8.43;79.23;100136.38;5096151;28;20238;-80
2022/02/04 13:20:34;;;;;;;1.27;0.80;;;;;;;8.34;78.57;100136.47;5095535;28;20203;-78
2022/02/04 13:23:07;;;;;;;0.67;0.67;;;;;;;8.34;79.38;100126.06;5097381;28;20257;-78
2022/02/04 13:25:35;;;;;;;0.70;0.70;;;;;;;8.37;80.75;100102.63;5096813;28;20274;-79
2022/02/04 13:28:09;;;;;;;0.73;0.73;;;;;;;8.15;80.59;100089.09;5095113;28;20227;-78
2022/02/04 13:30:38;;;;;;;0.70;0.70;;;;;;;8.25;81.12;100069.88;5095384;28;20241;-78
2022/02/04 13:33:16;;;;;;;0.77;0.50;;;;;;;8.13;80.64;100070.91;5092177;28;20684;-78
2022/02/04 13:35:50;;;;;;;0.60;0.60;;;;;;;7.93;80.99;100055.63;5093014;28;20228;-77
2022/02/04 13:38:25;;;;;;;0.80;0.70;;;;;;;8.01;82.24;100026.03;5076648;28;20270;-78
2022/02/04 13:41:02;;;;;;;0.50;0.50;;;;;;;8.00;82.13;100001.78;5082139;28;20275;-78
2022/02/04 13:43:38;;;;;;;1.80;0.60;;;;;;;7.96;81.55;100003.56;5069442;28;20195;-78
2022/02/04 13:46:14;;;;;;;0.70;0.60;;;;;;;7.94;82.05;100007.09;4365815;28;10000723;-77
2022/02/04 13:49:07;;;;;;;0.60;0.60;;;;;;;8.03;82.63;100000.91;5066175;28;20219;-78
2022/02/04 13:51:43;;;;;;;0.60;0.60;;;;;;;8.02;81.84;100006.97;5057658;28;20202;-77
2022/02/04 13:54:24;;;;;;;1.73;1.60;;;;;;;7.94;82.64;99988.91;5064776;28;20682;-77
2022/02/04 13:56:59;;;;;;;0.70;0.70;;;;;;;7.94;82.82;99974.16;5059728;28;20330;-78
2022/02/04 13:59:38;;;;;;;0.87;0.80;;;;;;;7.94;82.32;99987.16;5064314;28;20694;-79
2022/02/04 14:02:10;;;;;;;1.37;1.27;;;;;;;8.00;81.80;99990.53;5063526;28;20283;-79
2022/02/04 14:04:52;;;;;;;3.50;3.20;;;;;;;8.01;81.40;100013.91;5061918;28;20222;-78
2022/02/04 14:07:22;;;;;;;0.77;0.77;;;;;;;8.03;81.04;100016.50;5066500;28;20653;-76
2022/02/04 14:09:56;;;;;;;1.83;1.50;;;;;;;8.03;80.77;100013.91;5074573;28;20207;-79
2022/02/04 14:12:23;;;;;;;1.27;0.90;;;;;;;8.11;80.89;100004.25;5061768;28;20214;-78
2022/02/04 14:14:57;;;;;;;1.83;1.63;;;;;;;8.05;80.60;100019.94;5067839;28;20204;-77
2022/02/04 14:17:27;;;;;;;0.70;0.70;;;;;;;8.18;80.72;100002.38;5072367;28;20235;-77
2022/02/04 14:19:55;;;;;;;1.37;1.23;;;;;;;8.20;80.36;100009.28;5071393;28;20221;-76
2022/02/04 14:22:22;;;;;;;0.60;0.50;;;;;;;8.12;78.50;100058.78;5071089;28;20210;-77
2022/02/04 14:24:49;;;;;;;0.87;0.70;;;;;;;8.16;79.43;100042.25;5071916;28;20215;-77
2022/02/04 14:27:15;;;;;;;3.13;0.80;;;;;;;8.25;79.56;100043.03;5072401;28;20231;-77
2022/02/04 14:29:49;;;;;;;0.77;0.60;;;;;;;8.28;78.80;100038.59;5072302;28;20234;-76
2022/02/04 14:32:21;;;;;;;0.70;0.70;;;;;;;8.09;77.57;100058.00;5072057;28;20209;-77
2022/02/04 14:35:00;;;;;;;0.70;0.70;;;;;;;8.18;78.42;100062.19;5073181;28;20199;-78
2022/02/04 14:37:58;;;;;;;0.80;0.80;;;;;;;8.14;78.81;100040.56;5076528;28;20231;-78
2022/02/04 14:54:08;;;;;;;1.17;1.07;;;;;;;7.75;82.94;99903.44;5052524;28;20254;-77
2022/02/04 15:02:07;;;;;;;1.00;0.83;;;;;;;7.81;82.87;99873.03;5051834;28;20921;-79
2022/02/04 15:04:42;;;;;;;0.83;0.80;;;;;;;7.85;83.20;99882.50;5052283;28;20188;-79
2022/02/04 15:07:10;;;;;;;1.37;1.10;;;;;;;7.85;83.08;99877.28;5053663;28;20231;-77
2022/02/04 15:09:43;;;;;;;1.10;1.10;;;;;;;7.82;83.50;99867.81;5081873;28;20571;-78
2022/02/04 15:12:10;;;;;;;1.70;1.43;;;;;;;7.81;83.14;99847.94;5092826;28;20203;-77
2022/02/04 15:14:36;;;;;;;1.20;1.10;;;;;;;7.67;82.48;99852.47;5092218;28;20259;-78
2022/02/04 15:17:03;;;;;;;1.00;1.00;;;;;;;7.64;82.63;99856.00;5092020;28;20239;-78
2022/02/04 15:19:32;;;;;;;1.00;0.93;;;;;;;7.59;82.05;99864.75;5089891;28;20279;-77
2022/02/04 15:22:01;;;;;;;1.30;1.20;;;;;;;7.54;82.38;99886.44;5060052;28;20204;-76
2022/02/04 15:24:27;;;;;;;1.30;1.20;;;;;;;7.60;82.16;99897.63;5060799;28;20242;-78
2022/02/04 15:26:55;;;;;;;1.90;1.80;;;;;;;7.52;82.81;99887.38;5061354;28;20708;-77
2022/02/04 15:29:21;;;;;;;1.33;0.93;;;;;;;7.54;82.69;99862.22;5059648;28;20615;-77
2022/02/04 15:31:52;;;;;;;0.97;0.93;;;;;;;7.47;82.62;99858.88;5060624;28;20196;-78
2022/02/04 15:34:19;;;;;;;1.10;1.10;;;;;;;7.38;82.77;99860.75;5067043;28;20197;-78
2022/02/04 15:36:48;;;;;;;1.20;1.10;;;;;;;7.40;83.67;99838.22;5070127;28;20216;-78